Date,TemperatureHighF,TemperatureAvgF,TemperatureLowF,DewpointHighF,DewpointAvgF,DewpointLowF,HumidityHigh,HumidityAvg,HumidityLow,PressureMaxIn,PressureMinIn,WindSpeedMaxMPH,WindSpeedAvgMPH,GustSpeedMaxMPH,PrecipitationSumIn
2013-9-1,80,73,69,69,59,55,70,62,59,29.80,29.74,12,2,12,0.00
2013-9-2,84,74,65,69,60,52,72,62,51,29.93,29.77,13,2,13,0.00
2013-9-3,78,66,56,60,53,44,72,64,53,30.07,29.94,9,0,9,0.00
2013-9-4,82,68,54,64,56,43,73,64,51,30.13,30.04,12,1,12,0.01
2013-9-5,86,73,61,70,60,49,72,64,51,30.17,30.10,6,0,6,0.00
2013-9-6,85,73,61,70,61,50,72,66,57,30.18,30.02,7,0,7,0.00
2013-9-7,87,76,66,70,63,52,72,64,52,30.04,29.91,17,3,17,0.00
2013-9-8,84,76,68,73,64,54,72,67,60,29.96,29.90,9,0,9,0.00
2013-9-9,94,81,70,77,67,55,72,63,53,29.94,29.86,18,6,18,0.00
2013-9-10,96,83,74,75,68,59,72,62,45,30.06,29.94,15,5,15,0.00
2013-9-11,94,82,73,72,65,57,72,58,40,30.09,29.98,20,4,20,0.00
2013-9-12,84,74,63,68,59,52,72,61,39,30.01,29.89,26,4,26,0.00
2013-9-13,70,61,52,54,49,44,76,64,49,30.11,30.01,18,3,18,0.00
2013-9-14,71,57,44,50,43,35,74,61,35,30.17,30.03,12,1,12,0.00
2013-9-15,76,63,50,60,50,41,74,64,43,30.07,29.96,18,3,18,0.00
2013-9-16,65,61,53,55,50,42,73,67,61,30.27,30.06,13,3,13,0.01
2013-9-17,73,61,50,58,49,38,72,65,53,30.27,30.09,9,1,9,0.00
2013-9-18,83,71,60,69,59,48,71,66,59,30.09,29.96,16,4,16,0.00
2013-9-19,88,77,69,74,63,53,71,62,55,30.01,29.85,20,7,20,0.00
2013-9-20,78,71,60,66,57,50,70,63,56,29.88,29.79,20,4,20,0.00
2013-9-21,70,61,53,54,48,41,73,63,48,29.91,29.80,18,3,18,0.00
2013-9-22,70,58,47,53,46,36,72,64,51,30.01,29.91,12,0,12,0.03
2013-9-23,73,58,46,53,46,35,72,63,44,30.06,29.98,5,0,5,0.00
2013-9-24,76,62,48,62,51,37,72,67,57,30.01,29.85,12,1,12,0.00
2013-9-25,80,66,56,63,55,46,72,67,53,29.91,29.84,12,1,12,0.00
2013-9-26,80,64,53,57,50,41,72,61,39,30.04,29.90,8,1,8,0.00
2013-9-27,80,66,52,61,52,40,72,61,44,30.14,30.03,14,1,14,0.00
2013-9-28,83,69,55,63,54,42,70,60,45,30.09,29.95,20,5,20,0.00
2013-9-29,74,65,56,59,52,44,72,63,51,30.01,29.94,15,2,15,0.00
2013-9-30,76,63,51,61,50,38,71,63,55,29.99,29.89,15,2,15,0.00